Time;durP1;ratioP1;P1;durP2;ratioP2;P2;SDS_P1;SDS_P2;PMS_P1;PMS_P2;Temp;Humidity;BMP_temperature;BMP_pressure;BME280_temperature;BME280_humidity;BME280_pressure;Samples;Min_cycle;Max_cycle;Signal;HPM_P1;HPM_P2
2022/05/02 00:01:55;;;;;;;16.50;13.57;;;;;;;6.43;99.76;95719.84;4977924;28;20192;-79
2022/05/02 00:04:20;;;;;;;14.23;12.43;;;;;;;6.42;99.73;95715.66;4978512;28;20187;-79
2022/05/02 00:06:45;;;;;;;13.43;12.03;;;;;;;6.41;99.51;95711.44;4981924;28;20695;-79
2022/05/02 00:09:11;;;;;;;15.67;12.40;;;;;;;6.41;99.71;95717.41;4966195;28;20698;-79
2022/05/02 00:11:36;;;;;;;15.77;12.87;;;;;;;6.37;99.42;95710.84;4978202;28;20188;-79
2022/05/02 00:14:01;;;;;;;15.83;13.53;;;;;;;6.38;100.00;95711.66;4977172;28;20219;-79
2022/05/02 00:16:27;;;;;;;15.23;13.37;;;;;;;6.39;99.89;95713.31;4993755;28;20687;-79
2022/05/02 00:18:53;;;;;;;18.20;13.67;;;;;;;6.32;100.00;95707.78;4994290;28;20218;-79
2022/05/02 00:21:18;;;;;;;17.03;13.83;;;;;;;6.17;100.00;95701.22;4993403;28;20176;-79
2022/05/02 00:23:43;;;;;;;15.50;13.87;;;;;;;6.12;100.00;95703.34;4977183;28;20180;-79
2022/05/02 00:26:08;;;;;;;15.87;14.13;;;;;;;6.09;100.00;95700.97;4993686;28;20695;-79
2022/05/02 00:28:34;;;;;;;16.37;14.53;;;;;;;6.10;100.00;95694.91;4995193;28;20200;-80
2022/05/02 00:30:59;;;;;;;16.97;14.63;;;;;;;6.11;100.00;95694.78;4976909;28;20202;-79
2022/05/02 00:33:25;;;;;;;18.73;15.90;;;;;;;6.10;100.00;95693.16;4992471;28;20619;-79
2022/05/02 00:35:50;;;;;;;18.03;14.93;;;;;;;6.13;100.00;95694.66;4961839;28;20266;-79
2022/05/02 00:38:16;;;;;;;17.77;15.87;;;;;;;6.11;100.00;95694.78;4977589;28;20331;-78
2022/05/02 00:40:41;;;;;;;16.63;14.47;;;;;;;6.09;100.00;95690.66;4976771;28;20504;-79
2022/05/02 00:43:06;;;;;;;16.93;15.13;;;;;;;6.12;100.00;95693.03;4977263;28;20195;-79
2022/05/02 00:45:36;;;;;;;16.67;14.53;;;;;;;6.12;100.00;95688.69;4961078;28;20651;-79
2022/05/02 00:48:02;;;;;;;18.97;16.60;;;;;;;6.10;100.00;95687.19;4961090;28;20566;-79
2022/05/02 00:50:35;;;;;;;18.20;16.23;;;;;;;6.12;100.00;95687.88;4977442;28;20196;-79
2022/05/02 00:53:05;;;;;;;17.60;15.70;;;;;;;6.16;100.00;95684.13;4960725;28;20175;-79
2022/05/02 00:55:31;;;;;;;17.37;15.00;;;;;;;6.16;100.00;95684.13;4976798;28;20640;-79
2022/05/02 00:58:00;;;;;;;18.23;15.83;;;;;;;6.12;100.00;95674.97;4960678;28;20552;-79
2022/05/02 01:00:28;;;;;;;17.33;14.90;;;;;;;6.10;100.00;95685.41;4993398;28;20215;-79
2022/05/02 01:02:53;;;;;;;17.80;15.50;;;;;;;6.10;100.00;95676.88;4976767;28;20544;-78
2022/05/02 01:05:18;;;;;;;18.13;15.93;;;;;;;6.07;100.00;95679.66;4975135;28;20274;-79
2022/05/02 01:07:46;;;;;;;18.03;15.60;;;;;;;6.23;100.00;95678.38;4962717;28;20216;-79
2022/05/02 01:10:16;;;;;;;17.87;15.47;;;;;;;6.10;100.00;95679.44;4973274;28;20493;-79
2022/05/02 01:12:42;;;;;;;17.73;15.13;;;;;;;6.11;100.00;95678.50;4973102;28;20184;-79
2022/05/02 01:15:08;;;;;;;18.30;14.90;;;;;;;6.04;100.00;95679.91;4973566;28;20223;-79
2022/05/02 01:17:34;;;;;;;17.67;15.53;;;;;;;6.01;100.00;95673.22;4957715;28;20645;-79
2022/05/02 01:19:59;;;;;;;19.50;15.63;;;;;;;6.00;100.00;95673.31;4957640;28;20254;-79
2022/05/02 01:22:24;;;;;;;17.30;15.43;;;;;;;5.97;100.00;95667.47;4956678;28;20185;-79
2022/05/02 01:24:49;;;;;;;16.60;14.90;;;;;;;6.00;100.00;95675.91;4973302;28;20176;-79
2022/05/02 01:27:15;;;;;;;18.80;15.30;;;;;;;6.01;100.00;95667.22;4984584;28;20195;-79
2022/05/02 01:29:42;;;;;;;17.50;15.43;;;;;;;6.01;100.00;95667.22;4992340;28;20235;-79
2022/05/02 01:32:12;;;;;;;20.83;16.40;;;;;;;5.99;100.00;95664.78;4992363;28;20227;-79
2022/05/02 01:34:42;;;;;;;18.83;16.10;;;;;;;6.01;100.00;95668.06;4976546;28;20203;-79
2022/05/02 01:37:08;;;;;;;18.33;15.27;;;;;;;6.06;100.00;95654.81;4976278;28;20175;-78
2022/05/02 01:39:33;;;;;;;19.27;15.93;;;;;;;6.01;100.00;95659.50;4992903;28;20242;-78
2022/05/02 01:42:00;;;;;;;20.10;15.70;;;;;;;6.07;100.00;95651.28;4976275;28;20247;-79
2022/05/02 01:44:26;;;;;;;19.23;16.03;;;;;;;6.07;100.00;95657.28;4976547;28;20180;-79
2022/05/02 01:46:51;;;;;;;18.20;14.93;;;;;;;6.09;100.00;95646.84;4992706;28;20542;-79
2022/05/02 01:49:17;;;;;;;18.53;15.43;;;;;;;6.09;100.00;95649.41;4976096;28;20208;-79
2022/05/02 01:51:42;;;;;;;18.83;15.70;;;;;;;6.10;100.00;95646.75;4991920;28;20549;-79
2022/05/02 01:54:07;;;;;;;21.83;16.33;;;;;;;6.13;100.00;95643.91;4992609;28;20706;-79
2022/05/02 01:56:33;;;;;;;17.67;15.80;;;;;;;6.32;100.00;95643.31;4992380;28;20211;-78
2022/05/02 01:58:58;;;;;;;19.30;17.20;;;;;;;6.31;100.00;95646.84;4992858;28;20204;-78
2022/05/02 02:01:23;;;;;;;19.60;17.40;;;;;;;6.28;100.00;95634.19;4993165;28;20206;-79
2022/05/02 02:03:48;;;;;;;22.13;17.93;;;;;;;6.27;100.00;95631.69;4990991;28;20683;-79
2022/05/02 02:06:14;;;;;;;18.43;16.43;;;;;;;6.39;100.00;95639.31;4976209;28;20195;-79
2022/05/02 02:08:39;;;;;;;20.90;17.00;;;;;;;6.42;100.00;95639.06;4976136;28;20208;-79
2022/05/02 02:11:06;;;;;;;18.67;16.77;;;;;;;6.45;100.00;95641.44;4976385;28;20187;-79
2022/05/02 02:13:32;;;;;;;18.50;16.27;;;;;;;6.41;100.00;95640.00;4959546;28;20204;-79
2022/05/02 02:15:59;;;;;;;19.27;16.30;;;;;;;6.20;100.00;95642.50;4992733;28;20589;-79
2022/05/02 02:18:24;;;;;;;20.83;17.47;;;;;;;6.14;100.00;95640.41;4975924;28;20663;-78
2022/05/02 02:20:52;;;;;;;23.33;18.97;;;;;;;6.20;100.00;95636.53;4975700;28;20184;-79
2022/05/02 02:23:18;;;;;;;20.60;17.60;;;;;;;6.24;100.00;95636.16;4975462;28;20603;-78
2022/05/02 02:25:44;;;;;;;20.77;17.43;;;;;;;6.24;100.00;95636.16;4991891;28;20183;-79
2022/05/02 02:28:09;;;;;;;21.80;18.20;;;;;;;6.31;100.00;95635.69;4992137;28;20196;-78
2022/05/02 02:30:35;;;;;;;20.57;18.33;;;;;;;6.37;100.00;95632.66;4975963;28;20550;-78
2022/05/02 02:33:00;;;;;;;20.93;17.07;;;;;;;6.33;100.00;95633.81;4992691;28;20200;-78
2022/05/02 02:35:27;;;;;;;22.03;18.70;;;;;;;6.34;100.00;95632.88;4975493;28;20234;-78
2022/05/02 02:37:52;;;;;;;19.97;17.70;;;;;;;6.41;100.00;95631.47;4992041;28;20625;-78
2022/05/02 02:40:18;;;;;;;19.43;17.13;;;;;;;6.37;100.00;95624.91;4975930;28;20195;-79
2022/05/02 02:42:44;;;;;;;22.43;18.13;;;;;;;6.32;100.00;95629.59;4979026;28;20176;-78
2022/05/02 02:45:09;;;;;;;22.43;17.70;;;;;;;6.36;100.00;95631.84;4978998;28;20188;-78
2022/05/02 02:47:35;;;;;;;20.37;16.10;;;;;;;6.24;100.00;95618.13;4963235;28;20554;-78
2022/05/02 02:50:00;;;;;;;21.37;17.67;;;;;;;6.30;100.00;95621.16;4995483;28;20207;-78
2022/05/02 02:52:26;;;;;;;22.00;18.30;;;;;;;6.31;100.00;95623.63;4996251;28;20195;-78
2022/05/02 02:54:51;;;;;;;19.30;16.40;;;;;;;6.25;100.00;95614.59;4995601;28;20731;-78
2022/05/02 02:57:16;;;;;;;20.03;17.83;;;;;;;6.20;100.00;95605.59;4995380;28;20176;-79
2022/05/02 02:59:42;;;;;;;19.97;16.77;;;;;;;6.13;100.00;95610.41;4995104;28;20207;-78
2022/05/02 03:02:08;;;;;;;21.43;17.50;;;;;;;6.09;100.00;95603.00;4978245;28;20180;-79
2022/05/02 03:07:18;;;;;;;19.07;16.10;;;;;;;5.99;100.00;95602.09;4996521;28;20187;-79
2022/05/02 03:09:43;;;;;;;23.70;17.13;;;;;;;5.97;100.00;95608.19;4995098;28;20204;-79
2022/05/02 03:12:09;;;;;;;21.27;17.10;;;;;;;6.05;100.00;95597.28;4994273;28;20187;-79
2022/05/02 03:14:34;;;;;;;22.30;17.80;;;;;;;6.08;100.00;95593.63;4994802;28;20558;-79
2022/05/02 03:17:00;;;;;;;21.30;18.70;;;;;;;6.07;100.00;95584.28;4978649;28;20255;-78
2022/05/02 03:19:26;;;;;;;19.50;17.43;;;;;;;6.06;100.00;95585.22;4979199;28;20211;-78
2022/05/02 03:21:51;;;;;;;18.83;16.23;;;;;;;6.06;100.00;95575.72;4994138;28;20172;-77
2022/05/02 03:24:17;;;;;;;20.37;16.70;;;;;;;6.02;100.00;95578.66;4994743;28;20540;-77
2022/05/02 03:26:42;;;;;;;20.07;16.67;;;;;;;5.84;100.00;95583.44;4978298;28;20214;-78
2022/05/02 03:29:07;;;;;;;18.43;16.53;;;;;;;5.77;100.00;95580.53;4994648;28;20199;-77
2022/05/02 03:31:32;;;;;;;20.90;17.00;;;;;;;5.70;100.00;95576.75;4977909;28;20592;-79
2022/05/02 03:33:58;;;;;;;18.67;16.67;;;;;;;5.67;100.00;95582.16;4977970;28;20691;-78
2022/05/02 03:36:23;;;;;;;22.43;17.10;;;;;;;5.65;100.00;95576.28;4978279;28;20186;-78
2022/05/02 03:38:48;;;;;;;22.07;17.73;;;;;;;5.66;100.00;95578.78;4994109;28;20203;-77
2022/05/02 03:41:14;;;;;;;19.80;16.43;;;;;;;5.66;100.00;95575.38;4993801;28;20511;-79
2022/05/02 03:43:39;;;;;;;19.47;16.53;;;;;;;5.69;100.00;95575.13;4995738;28;20222;-79
2022/05/02 03:46:04;;;;;;;20.30;17.07;;;;;;;5.70;100.00;95576.75;4994371;28;20183;-78
2022/05/02 03:48:30;;;;;;;21.27;17.43;;;;;;;5.72;100.00;95571.50;4994503;28;20207;-77
2022/05/02 03:50:55;;;;;;;19.97;17.47;;;;;;;5.68;100.00;95578.66;4994324;28;20187;-78
2022/05/02 03:53:21;;;;;;;20.03;16.90;;;;;;;5.69;100.00;95573.38;4992660;28;20250;-78
2022/05/02 03:55:46;;;;;;;16.83;15.03;;;;;;;6.02;100.00;95574.31;4978194;28;20234;-77
2022/05/02 03:58:12;;;;;;;22.50;16.63;;;;;;;5.85;100.00;95579.94;4994015;28;20207;-77
2022/05/02 04:00:37;;;;;;;18.33;15.47;;;;;;;5.88;100.00;95565.03;4979704;28;20192;-78
2022/05/02 04:03:03;;;;;;;17.10;15.23;;;;;;;5.81;100.00;95576.75;5000317;28;20184;-78
2022/05/02 04:05:28;;;;;;;19.37;15.23;;;;;;;5.79;100.00;95576.06;4998260;28;20190;-78
2022/05/02 04:07:53;;;;;;;18.00;15.53;;;;;;;5.75;100.00;95579.81;5009355;28;20231;-77
2022/05/02 04:10:19;;;;;;;19.17;16.13;;;;;;;5.75;100.00;95579.81;4980980;28;20188;-78
2022/05/02 04:12:44;;;;;;;19.07;16.10;;;;;;;5.82;100.00;95577.56;4978446;28;20175;-79
2022/05/02 04:15:10;;;;;;;19.43;16.53;;;;;;;5.90;100.00;95563.19;4962609;28;20212;-78
2022/05/02 04:17:36;;;;;;;18.13;15.37;;;;;;;6.00;100.00;95572.78;4978507;28;20188;-78
2022/05/02 04:20:03;;;;;;;18.17;14.93;;;;;;;6.03;100.00;95572.56;4993985;28;20196;-78
2022/05/02 04:22:28;;;;;;;17.73;15.60;;;;;;;6.17;100.00;95578.28;4993378;28;20172;-78
2022/05/02 04:24:54;;;;;;;17.47;14.57;;;;;;;6.12;99.85;95574.44;4977705;28;20599;-78
2022/05/02 04:27:19;;;;;;;16.50;14.80;;;;;;;6.09;99.66;95572.88;4978169;28;20180;-81
2022/05/02 04:29:44;;;;;;;16.20;14.47;;;;;;;6.04;99.69;95569.06;4995084;28;20203;-77
2022/05/02 04:32:10;;;;;;;19.87;15.03;;;;;;;6.00;100.00;95576.19;4977021;28;20270;-77
2022/05/02 04:34:35;;;;;;;16.60;14.67;;;;;;;6.08;100.00;95575.59;4995149;28;20214;-78
2022/05/02 04:37:00;;;;;;;16.80;15.07;;;;;;;6.13;100.00;95574.31;4995189;28;20176;-78
2022/05/02 04:39:26;;;;;;;18.07;15.43;;;;;;;6.14;100.00;95573.38;4977535;28;20208;-78
2022/05/02 04:41:51;;;;;;;15.93;13.80;;;;;;;6.14;99.37;95575.13;4994812;28;20180;-78
2022/05/02 04:44:17;;;;;;;16.53;14.83;;;;;;;6.18;99.32;95586.81;4977628;28;20226;-78
2022/05/02 04:46:42;;;;;;;16.83;15.07;;;;;;;6.18;99.28;95579.09;4976853;28;20172;-77
2022/05/02 04:49:07;;;;;;;17.63;15.00;;;;;;;6.38;99.38;95585.28;4991626;28;20270;-78
2022/05/02 04:51:32;;;;;;;16.90;14.33;;;;;;;6.49;98.71;95587.81;4975606;28;20239;-76
2022/05/02 04:53:58;;;;;;;17.10;14.30;;;;;;;6.51;98.58;95586.75;4972722;28;20579;-78
2022/05/02 04:56:24;;;;;;;17.03;14.87;;;;;;;7.17;98.09;95591.78;4961060;28;20191;-78
2022/05/02 04:58:49;;;;;;;19.20;15.23;;;;;;;9.22;90.56;95595.69;4976270;28;20300;-77
2022/05/02 05:01:14;;;;;;;13.77;11.97;;;;;;;10.07;83.92;95583.56;4975777;28;20238;-78
2022/05/02 05:03:40;;;;;;;16.50;12.47;;;;;;;11.19;80.87;95586.69;5008532;28;20184;-78
2022/05/02 05:06:05;;;;;;;14.07;12.40;;;;;;;11.82;74.99;95595.13;4974678;28;20196;-78
2022/05/02 05:08:31;;;;;;;15.37;11.73;;;;;;;12.06;69.17;95594.44;4992593;28;20216;-78
2022/05/02 05:11:12;;;;;;;14.77;11.23;;;;;;;11.93;70.89;95601.03;4974452;28;20192;-78
2022/05/02 05:16:50;;;;;;;13.10;11.80;;;;;;;11.18;74.62;95587.66;4992216;28;20279;-79
2022/05/02 05:19:37;;;;;;;14.60;12.50;;;;;;;11.15;76.28;95595.78;4990656;28;20547;-79
2022/05/02 05:22:32;;;;;;;15.30;13.60;;;;;;;10.65;78.19;95591.88;4989769;28;20651;-79
2022/05/02 05:25:02;;;;;;;14.70;13.27;;;;;;;10.54;79.11;95593.88;4976133;28;20179;-78
2022/05/02 05:27:53;;;;;;;16.33;14.13;;;;;;;10.55;79.80;95591.13;4976057;28;20238;-78
2022/05/02 05:30:21;;;;;;;15.03;13.53;;;;;;;10.46;79.31;95587.63;5008385;28;20191;-77
2022/05/02 05:33:02;;;;;;;16.00;14.30;;;;;;;10.42;81.03;95586.31;4960592;28;20244;-78
2022/05/02 05:35:40;;;;;;;13.07;11.77;;;;;;;10.61;80.98;95587.16;4976405;28;20212;-78
2022/05/02 05:38:26;;;;;;;13.87;12.37;;;;;;;10.61;82.12;95587.16;4993197;28;20184;-78
2022/05/02 05:41:01;;;;;;;16.43;12.77;;;;;;;10.69;81.48;95588.06;4975241;28;20191;-78
2022/05/02 05:43:45;;;;;;;16.10;14.40;;;;;;;10.74;81.50;95592.78;5007233;28;20340;-78
2022/05/02 05:46:46;;;;;;;15.30;13.70;;;;;;;10.88;81.46;95592.28;4975487;28;20192;-77
2022/05/02 05:49:35;;;;;;;13.57;12.07;;;;;;;11.07;81.72;95591.31;4913500;29;20640;-78
2022/05/02 05:52:19;;;;;;;13.23;11.60;;;;;;;10.99;80.94;95597.25;4988684;28;20282;-77
2022/05/02 05:55:02;;;;;;;14.37;11.73;;;;;;;11.37;80.39;95600.50;4974398;28;20277;-77
2022/05/02 05:57:41;;;;;;;16.57;14.73;;;;;;;11.39;79.36;95595.13;4982163;28;20190;-77
2022/05/02 06:00:11;;;;;;;16.10;14.40;;;;;;;11.99;75.67;95592.63;4991059;28;20211;-77
2022/05/02 06:03:14;;;;;;;16.50;14.77;;;;;;;12.33;76.46;95595.22;5007029;28;20262;-77
2022/05/02 06:05:42;;;;;;;20.30;16.37;;;;;;;12.74;72.35;95596.97;4991134;28;20544;-79
2022/05/02 06:08:14;;;;;;;17.97;16.23;;;;;;;12.72;71.63;95587.66;4959372;28;20775;-78
2022/05/02 06:10:42;;;;;;;19.00;17.10;;;;;;;12.63;72.48;95597.28;4991969;28;20188;-78
2022/05/02 06:13:08;;;;;;;18.50;16.43;;;;;;;12.97;71.10;95598.97;4974044;28;20262;-77
2022/05/02 06:18:28;;;;;;;17.90;16.00;;;;;;;12.89;71.03;95607.56;4979907;28;20600;-76
2022/05/02 06:20:59;;;;;;;17.47;15.07;;;;;;;12.87;70.60;95604.31;4962583;28;20182;-78
2022/05/02 06:23:26;;;;;;;19.17;16.30;;;;;;;13.05;70.10;95605.00;4978441;28;20184;-78
2022/05/02 06:25:53;;;;;;;19.93;16.33;;;;;;;13.51;67.73;95602.75;4962346;28;20192;-78
2022/05/02 06:28:22;;;;;;;20.77;15.57;;;;;;;13.96;64.81;95603.19;5011283;28;20200;-79
2022/05/02 06:30:49;;;;;;;17.17;15.37;;;;;;;14.41;63.48;95602.56;4947028;28;20187;-78
2022/05/02 06:33:15;;;;;;;18.40;15.00;;;;;;;14.38;63.72;95597.66;5010521;28;20202;-78
2022/05/02 06:36:21;;;;;;;15.17;13.57;;;;;;;15.58;59.56;95604.94;4978100;28;20187;-78
2022/05/02 06:39:10;;;;;;;16.07;14.20;;;;;;;16.68;56.72;95605.13;4932356;29;20206;-77
2022/05/02 06:41:49;;;;;;;14.37;12.97;;;;;;;17.40;53.62;95606.06;4916315;29;20207;-78
2022/05/02 06:44:42;;;;;;;14.73;13.30;;;;;;;17.56;52.01;95609.25;4924627;29;20210;-79
2022/05/02 06:47:35;;;;;;;13.55;12.20;;;;;;;17.45;51.64;95608.94;4927663;29;20698;-78
2022/05/02 06:50:03;;;;;;;12.97;11.77;;;;;;;17.29;51.81;95602.13;4896289;29;20214;-78
2022/05/02 06:52:33;;;;;;;14.02;12.63;;;;;;;17.89;52.02;95607.91;4915695;29;20711;-78
2022/05/02 06:55:12;;;;;;;14.82;13.00;;;;;;;17.71;51.10;95603.13;4916363;29;20214;-79
2022/05/02 06:58:06;;;;;;;14.07;12.57;;;;;;;17.21;53.76;95603.06;4900277;29;20273;-79
2022/05/02 07:00:37;;;;;;;13.73;12.38;;;;;;;17.99;51.45;95603.13;4899614;29;20206;-78
2022/05/02 07:03:11;;;;;;;13.30;12.00;;;;;;;17.48;50.78;95606.75;4899608;29;20334;-79
2022/05/02 07:06:09;;;;;;;13.68;12.07;;;;;;;17.40;51.29;95606.06;4915555;29;20221;-79
2022/05/02 07:08:48;;;;;;;14.95;12.40;;;;;;;17.11;52.43;95597.31;4919452;29;20229;-79
2022/05/02 07:11:18;;;;;;;15.90;13.60;;;;;;;17.14;53.27;95609.25;4899576;29;20194;-78
2022/05/02 07:14:17;;;;;;;16.48;13.52;;;;;;;16.77;53.40;95605.00;4956361;28;20758;-79
2022/05/02 07:16:48;;;;;;;15.40;12.87;;;;;;;16.34;54.66;95603.06;4993835;28;20204;-78
2022/05/02 07:19:30;;;;;;;14.97;13.50;;;;;;;16.50;55.02;95606.47;5010221;28;20542;-78
2022/05/02 07:22:03;;;;;;;15.43;13.83;;;;;;;16.01;56.36;95600.00;4976323;28;20200;-79
2022/05/02 07:24:30;;;;;;;15.73;14.10;;;;;;;16.00;55.59;95600.19;4993005;28;20176;-78
2022/05/02 07:27:04;;;;;;;16.67;13.80;;;;;;;15.30;57.99;95599.44;4992436;28;20184;-79
2022/05/02 07:29:30;;;;;;;16.80;14.63;;;;;;;15.51;57.39;95605.81;4991043;28;20200;-77
2022/05/02 07:31:55;;;;;;;18.73;15.47;;;;;;;14.80;60.58;95604.34;5009337;28;20212;-78
2022/05/02 07:34:22;;;;;;;17.67;15.77;;;;;;;15.31;57.44;95610.72;4960583;28;20219;-79
2022/05/02 07:36:51;;;;;;;18.30;15.40;;;;;;;14.68;59.78;95606.56;5009323;28;20191;-79
2022/05/02 07:39:19;;;;;;;16.73;15.03;;;;;;;14.81;61.06;95612.03;4961318;28;20721;-79
2022/05/02 07:41:44;;;;;;;19.40;17.30;;;;;;;14.78;59.66;95607.16;4976228;28;20176;-79
2022/05/02 07:44:13;;;;;;;17.80;16.00;;;;;;;15.07;58.15;95603.84;4960519;28;20568;-78
2022/05/02 07:46:44;;;;;;;17.63;15.93;;;;;;;15.09;58.98;95603.69;4976849;28;20203;-78
2022/05/02 07:49:10;;;;;;;18.27;16.27;;;;;;;14.39;63.07;95607.13;4977862;28;20207;-81
2022/05/02 07:51:47;;;;;;;19.97;17.93;;;;;;;15.02;59.40;95601.78;5009356;28;20283;-78
2022/05/02 07:54:18;;;;;;;19.53;17.07;;;;;;;14.99;60.11;95609.94;4977547;28;20302;-78
2022/05/02 07:56:46;;;;;;;19.60;17.07;;;;;;;15.12;59.58;95603.34;4976068;28;20199;-78
2022/05/02 07:59:14;;;;;;;17.60;15.80;;;;;;;15.46;58.58;95610.75;4976841;28;20235;-78
2022/05/02 08:01:41;;;;;;;16.63;14.83;;;;;;;15.40;60.67;95604.44;4959062;28;20230;-78
2022/05/02 08:04:06;;;;;;;16.87;14.97;;;;;;;15.98;58.18;95605.56;4976544;28;20238;-78
2022/05/02 08:07:02;;;;;;;17.67;15.87;;;;;;;15.84;59.83;95611.63;4975963;28;20573;-78
2022/05/02 08:09:41;;;;;;;16.07;14.43;;;;;;;15.47;61.90;95608.00;4992499;28;20210;-78
2022/05/02 08:12:48;;;;;;;16.83;14.90;;;;;;;16.11;59.67;95605.78;4960345;28;20660;-78
2022/05/02 08:15:26;;;;;;;16.27;14.57;;;;;;;16.08;58.48;95608.75;4971912;28;20208;-79
2022/05/02 08:18:10;;;;;;;15.53;14.03;;;;;;;15.69;60.72;95610.78;4970521;28;20203;-78
2022/05/02 08:20:55;;;;;;;15.03;13.50;;;;;;;15.80;58.54;95607.72;4992482;28;20183;-78
2022/05/02 08:29:40;;;;;;;15.00;13.50;;;;;;;15.13;60.64;95610.22;4978615;28;20215;-77
2022/05/02 08:32:10;;;;;;;16.17;13.23;;;;;;;15.16;61.42;95599.38;4975531;28;20188;-77
2022/05/02 08:34:38;;;;;;;16.20;13.20;;;;;;;14.94;60.67;95606.25;4975465;28;20253;-79
2022/05/02 08:37:41;;;;;;;13.53;12.10;;;;;;;15.59;58.68;95600.53;4991980;28;20214;-80
2022/05/02 08:40:24;;;;;;;15.80;13.30;;;;;;;15.69;57.49;95598.50;4991069;28;20212;-80
2022/05/02 08:43:15;;;;;;;16.17;12.80;;;;;;;15.92;57.84;95601.06;5000059;28;20218;-80
2022/05/02 08:46:01;;;;;;;15.00;13.23;;;;;;;16.13;57.80;95589.88;4973949;28;20569;-80
2022/05/02 08:48:48;;;;;;;15.07;12.60;;;;;;;15.98;57.60;95595.09;4973624;28;20212;-82
2022/05/02 08:51:44;;;;;;;14.17;12.77;;;;;;;16.28;58.37;95595.94;4993193;28;20180;-81
2022/05/02 08:54:09;;;;;;;14.50;13.10;;;;;;;16.46;57.39;95597.38;5010408;28;20200;-79
2022/05/02 08:56:50;;;;;;;13.53;12.20;;;;;;;16.37;56.23;95594.03;5014502;28;20188;-80
2022/05/02 08:59:21;;;;;;;14.90;13.40;;;;;;;16.27;55.44;95599.53;5013697;28;20207;-81
2022/05/02 09:02:25;;;;;;;16.47;14.03;;;;;;;16.62;57.47;95589.28;5007703;28;20679;-80
2022/05/02 09:05:05;;;;;;;14.23;12.93;;;;;;;15.97;57.64;95593.47;4957017;28;20198;-80
2022/05/02 09:08:12;;;;;;;16.43;12.67;;;;;;;16.29;56.48;95591.50;4976092;28;20180;-81
2022/05/02 09:11:07;;;;;;;13.63;12.33;;;;;;;16.09;57.26;95597.28;4913978;29;20222;-81
2022/05/02 09:14:01;;;;;;;13.27;11.90;;;;;;;16.37;57.15;95588.78;4913838;29;20353;-81
2022/05/02 09:16:43;;;;;;;14.23;12.73;;;;;;;15.97;57.69;95585.63;4913964;29;20190;-81
2022/05/02 09:19:20;;;;;;;15.03;12.83;;;;;;;15.75;57.35;95589.13;4895518;29;20210;-81
2022/05/02 09:22:13;;;;;;;13.40;12.00;;;;;;;15.48;60.44;95591.28;4898966;29;20186;-81
2022/05/02 09:25:02;;;;;;;13.37;11.73;;;;;;;15.61;55.35;95593.34;4916473;29;20178;-81
2022/05/02 09:27:51;;;;;;;11.33;10.10;;;;;;;15.58;53.39;95597.09;4899803;29;20503;-81
2022/05/02 09:30:54;;;;;;;11.60;9.83;;;;;;;15.89;55.37;95596.16;4899330;29;20206;-81
2022/05/02 09:33:30;;;;;;;11.70;10.47;;;;;;;16.08;51.72;95594.84;4914517;29;20241;-81
2022/05/02 09:36:20;;;;;;;9.70;8.70;;;;;;;16.10;52.28;95598.91;4931979;29;20213;-81
2022/05/02 09:38:52;;;;;;;11.73;9.83;;;;;;;16.69;52.21;95592.81;4916255;29;20203;-80
2022/05/02 09:41:36;;;;;;;9.60;8.70;;;;;;;16.81;48.54;95586.13;4920619;29;20658;-81
2022/05/02 09:49:58;;;;;;;11.87;8.40;;;;;;;17.99;50.39;95590.00;4978054;28;20334;-83
2022/05/02 09:52:48;;;;;;;11.18;9.60;;;;;;;17.76;48.95;95585.00;4976362;28;20656;-80
2022/05/02 09:58:32;;;;;;;9.13;8.18;;;;;;;18.03;48.20;95584.19;4978727;28;20410;-81
2022/05/02 10:01:07;;;;;;;11.20;9.73;;;;;;;17.51;49.29;95580.13;4969185;28;20172;-80
2022/05/02 10:03:39;;;;;;;10.85;9.05;;;;;;;17.38;51.33;95581.81;4975139;28;20183;-80
2022/05/02 10:06:10;;;;;;;12.45;10.70;;;;;;;16.72;51.63;95575.94;4975099;28;20271;-79
2022/05/02 10:08:48;;;;;;;13.52;10.23;;;;;;;16.58;52.48;95569.66;4991779;28;20322;-81
2022/05/02 10:11:32;;;;;;;11.25;10.10;;;;;;;17.03;52.94;95565.94;4990488;28;20184;-81
2022/05/02 10:14:23;;;;;;;11.48;9.38;;;;;;;17.15;49.65;95572.34;4992126;28;20330;-80
2022/05/02 10:16:57;;;;;;;12.52;9.10;;;;;;;16.58;51.40;95565.25;4958963;28;20204;-80
2022/05/02 10:19:47;;;;;;;11.05;9.48;;;;;;;16.58;52.54;95572.28;4974379;28;20234;-80
2022/05/02 10:22:30;;;;;;;12.38;9.77;;;;;;;16.88;50.41;95570.47;4983747;28;20187;-81
2022/05/02 10:25:10;;;;;;;12.13;10.60;;;;;;;16.30;52.14;95572.16;4992403;28;20179;-81
2022/05/02 10:27:48;;;;;;;12.17;10.93;;;;;;;16.42;51.65;95571.50;4991329;28;20180;-80
2022/05/02 10:30:13;;;;;;;9.70;8.73;;;;;;;17.05;52.75;95569.22;4991926;28;20200;-81
2022/05/02 10:32:53;;;;;;;10.32;9.32;;;;;;;17.38;51.19;95568.69;4958876;28;20235;-80
2022/05/02 10:35:21;;;;;;;11.30;9.32;;;;;;;17.39;51.38;95573.75;4974711;28;20257;-82
2022/05/02 10:38:04;;;;;;;10.25;9.25;;;;;;;17.25;49.31;95562.34;4976772;28;20199;-82
2022/05/02 10:40:41;;;;;;;11.88;10.65;;;;;;;16.52;52.09;95567.78;4974233;28;20660;-80
2022/05/02 10:43:08;;;;;;;12.85;11.55;;;;;;;16.17;51.90;95567.56;4973269;28;20260;-81
2022/05/02 10:45:36;;;;;;;11.77;10.57;;;;;;;15.69;54.72;95558.41;4974994;28;20192;-81
2022/05/02 10:48:35;;;;;;;11.48;9.93;;;;;;;16.54;53.33;95557.94;4973816;28;20591;-81
2022/05/02 10:51:12;;;;;;;11.30;10.10;;;;;;;16.52;52.81;95552.88;4992801;28;20191;-81
2022/05/02 10:54:11;;;;;;;8.85;7.97;;;;;;;16.39;51.04;95544.84;4958002;28;20188;-81
2022/05/02 10:56:48;;;;;;;11.60;10.40;;;;;;;16.67;52.27;95556.25;5008606;28;20192;-82
2022/05/02 10:59:15;;;;;;;13.87;10.20;;;;;;;17.23;50.06;95551.22;4958734;28;20759;-81
2022/05/02 11:01:46;;;;;;;10.85;9.75;;;;;;;17.10;49.50;95548.47;4974489;28;20550;-81
2022/05/02 11:04:42;;;;;;;10.55;9.45;;;;;;;17.22;47.88;95548.78;4978227;28;20631;-82
2022/05/02 11:07:12;;;;;;;11.30;10.10;;;;;;;17.02;47.79;95550.41;4977052;28;20192;-80
2022/05/02 11:09:44;;;;;;;10.45;9.38;;;;;;;16.81;50.10;95545.97;4977959;28;20743;-82
2022/05/02 11:12:22;;;;;;;10.52;9.43;;;;;;;17.14;50.78;95549.72;4978387;28;20191;-82
2022/05/02 11:15:05;;;;;;;9.75;8.75;;;;;;;17.18;49.01;95544.91;4962355;28;20623;-81
2022/05/02 11:17:50;;;;;;;11.70;9.38;;;;;;;17.46;48.19;95543.13;4977985;28;20184;-81
2022/05/02 11:20:43;;;;;;;11.10;9.10;;;;;;;17.20;48.40;95543.72;5008222;28;20223;-82
2022/05/02 11:23:24;;;;;;;11.25;8.60;;;;;;;17.14;48.33;95541.88;4994357;28;20215;-82
2022/05/02 11:26:09;;;;;;;8.45;7.55;;;;;;;17.33;48.40;95536.97;4977946;28;20190;-82
2022/05/02 11:28:48;;;;;;;11.57;8.98;;;;;;;17.30;46.79;95538.13;4991895;28;20217;-81
2022/05/02 11:31:30;;;;;;;8.40;7.68;;;;;;;16.94;48.84;95535.59;4983832;28;20192;-82
2022/05/02 11:34:07;;;;;;;8.80;7.90;;;;;;;17.53;46.71;95537.94;4983407;28;20703;-81
2022/05/02 11:36:37;;;;;;;9.32;8.43;;;;;;;17.79;45.67;95532.09;4977309;28;20188;-82
2022/05/02 11:39:02;;;;;;;10.50;8.02;;;;;;;17.66;47.33;95531.94;4981010;28;20303;-83
2022/05/02 11:41:32;;;;;;;9.65;8.63;;;;;;;17.69;47.38;95535.03;4992796;28;20263;-83
2022/05/02 11:44:15;;;;;;;10.02;9.02;;;;;;;17.07;49.40;95527.06;4975130;28;20180;-82
2022/05/02 11:47:15;;;;;;;11.23;9.43;;;;;;;17.25;48.60;95528.22;4992844;28;20246;-82
2022/05/02 11:49:46;;;;;;;10.50;9.13;;;;;;;17.24;48.30;95534.47;4976922;28;20210;-81
2022/05/02 11:52:16;;;;;;;13.18;8.30;;;;;;;17.65;47.99;95531.13;4992100;28;20191;-82
2022/05/02 11:54:47;;;;;;;16.17;10.20;;;;;;;17.23;48.36;95534.66;4977183;28;20682;-81
2022/05/02 11:57:28;;;;;;;8.95;8.10;;;;;;;17.46;46.25;95532.63;4960958;28;20199;-81
2022/05/02 12:00:05;;;;;;;8.95;7.45;;;;;;;17.85;46.43;95526.06;4994131;28;20219;-81
2022/05/02 12:02:53;;;;;;;8.15;7.35;;;;;;;18.48;44.68;95528.59;4975588;28;20203;-81
2022/05/02 12:05:31;;;;;;;8.45;7.65;;;;;;;18.79;42.66;95533.34;4960962;28;20184;-81
2022/05/02 12:08:04;;;;;;;7.97;7.20;;;;;;;18.79;43.07;95518.38;4976509;28;20245;-81
2022/05/02 12:10:39;;;;;;;7.35;6.75;;;;;;;18.25;45.28;95521.00;4993139;28;20727;-81